Time;durP1;ratioP1;P1;durP2;ratioP2;P2;SDS_P1;SDS_P2;PMS_P1;PMS_P2;Temp;Humidity;BMP_temperature;BMP_pressure;BME280_temperature;BME280_humidity;BME280_pressure;Samples;Min_cycle;Max_cycle;Signal;HPM_P1;HPM_P2
2022/11/03 04:40:53;;;;;;;8.20;1.85;;;15.30;68.40;;;;;;4817481;29;20070;-72
2022/11/03 04:43:21;;;;;;;8.32;2.45;;;15.50;68.20;;;;;;4808653;29;20097;-73
2022/11/03 04:45:48;;;;;;;8.45;2.13;;;15.70;68.30;;;;;;4825159;29;20085;-72
2022/11/03 04:48:19;;;;;;;7.30;2.05;;;15.80;68.30;;;;;;4826305;29;20094;-74
2022/11/03 04:50:48;;;;;;;10.63;2.13;;;15.90;68.30;;;;;;4825980;29;20118;-70
2022/11/03 05:43:18;;;;;;;16.58;2.50;;;16.30;71.60;;;;;;5060744;24;20049;-74
2022/11/03 05:45:45;;;;;;;12.80;2.35;;;16.30;70.50;;;;;;4860986;29;20054;-72
2022/11/03 05:48:23;;;;;;;10.93;2.85;;;16.30;69.90;;;;;;4862117;29;20049;-73
2022/11/03 05:50:49;;;;;;;9.25;2.63;;;16.20;69.50;;;;;;4862646;29;20065;-77
2022/11/03 05:53:31;;;;;;;7.00;1.90;;;16.20;69.20;;;;;;4862940;29;20057;-73
2022/11/03 05:56:03;;;;;;;15.25;2.60;;;16.20;68.60;;;;;;4862367;29;20510;-73
2022/11/03 05:58:41;;;;;;;10.10;1.80;;;16.20;68.20;;;;;;4862145;29;20069;-74
2022/11/03 06:01:32;;;;;;;7.80;2.40;;;16.10;68.20;;;;;;4862581;29;20396;-74
2022/11/03 06:04:13;;;;;;;8.43;2.63;;;16.10;68.20;;;;;;4862196;29;20056;-73
2022/11/03 06:06:39;;;;;;;8.60;2.20;;;16.10;68.60;;;;;;4861193;29;20056;-72
2022/11/03 06:09:13;;;;;;;9.57;2.88;;;16.10;68.80;;;;;;4862844;29;20399;-75
2022/11/03 06:11:39;;;;;;;7.82;2.03;;;16.10;69.10;;;;;;4877053;29;20053;-74
2022/11/03 06:14:19;;;;;;;11.23;2.05;;;16.00;69.30;;;;;;4862222;29;20049;-73
2022/11/03 06:17:06;;;;;;;12.00;2.20;;;16.00;69.50;;;;;;4862135;29;20053;-75
2022/11/03 06:19:41;;;;;;;13.25;2.78;;;16.00;69.70;;;;;;4863520;29;20085;-73
2022/11/03 06:22:28;;;;;;;8.23;2.00;;;16.00;69.90;;;;;;4865579;29;20053;-74
2022/11/03 06:25:00;;;;;;;9.88;2.55;;;16.10;69.90;;;;;;4863814;29;20059;-77
2022/11/03 06:27:29;;;;;;;10.85;2.38;;;16.00;70.00;;;;;;4865097;29;20344;-75
2022/11/03 06:30:20;;;;;;;10.73;2.42;;;16.10;69.80;;;;;;4865236;29;20053;-75
2022/11/03 06:32:46;;;;;;;10.20;2.00;;;16.10;69.40;;;;;;4854746;29;20136;-73
2022/11/03 06:35:13;;;;;;;8.60;2.00;;;16.10;69.10;;;;;;4864934;29;20057;-74
2022/11/03 06:37:40;;;;;;;11.52;2.00;;;16.10;69.00;;;;;;4865441;29;20045;-71
2022/11/03 06:40:09;;;;;;;12.98;2.22;;;16.10;68.80;;;;;;4876646;29;20048;-74
2022/11/03 06:42:36;;;;;;;6.85;2.22;;;16.20;69.00;;;;;;4883629;29;20056;-76
2022/11/03 06:45:13;;;;;;;11.60;2.10;;;16.10;69.40;;;;;;4883721;29;20068;-74
2022/11/03 06:47:40;;;;;;;12.15;2.25;;;16.10;70.10;;;;;;4871387;29;20056;-75
2022/11/03 06:50:28;;;;;;;11.05;2.22;;;16.10;70.30;;;;;;4865189;29;20080;-73
2022/11/03 06:52:57;;;;;;;10.52;2.28;;;16.10;70.70;;;;;;4864813;29;20056;-73
2022/11/03 06:55:27;;;;;;;11.07;2.90;;;16.10;68.80;;;;;;4864948;29;20053;-74
2022/11/03 06:57:57;;;;;;;11.48;2.63;;;16.00;68.70;;;;;;4865611;29;20057;-74
2022/11/03 07:00:27;;;;;;;10.15;2.42;;;15.90;69.30;;;;;;4848569;29;20060;-74
2022/11/03 07:03:36;;;;;;;8.50;2.15;;;15.90;69.90;;;;;;4864898;29;20090;-73
2022/11/03 07:06:15;;;;;;;6.55;1.67;;;15.80;70.20;;;;;;4864613;29;20135;-74
2022/11/03 07:08:45;;;;;;;16.90;2.50;;;15.80;70.90;;;;;;4864492;29;20061;-72
2022/11/03 07:11:21;;;;;;;16.63;2.80;;;15.80;71.30;;;;;;4864652;29;20492;-71
2022/11/03 07:13:49;;;;;;;11.30;2.75;;;15.90;71.20;;;;;;4864949;29;20429;-72
2022/11/03 07:16:32;;;;;;;16.17;2.22;;;15.90;71.00;;;;;;4864728;29;20089;-70
2022/11/03 07:19:00;;;;;;;16.00;2.40;;;15.90;71.20;;;;;;4864324;29;20451;-74
2022/11/03 07:21:45;;;;;;;20.60;3.78;;;15.90;71.40;;;;;;4864666;29;20333;-73
2022/11/03 07:24:26;;;;;;;18.33;2.55;;;16.00;71.60;;;;;;4864483;29;20054;-73
2022/11/03 07:27:19;;;;;;;13.77;2.20;;;16.00;72.10;;;;;;4864340;29;20125;-72
2022/11/03 07:29:46;;;;;;;10.18;2.33;;;16.00;72.10;;;;;;4864057;29;20049;-78
2022/11/03 07:32:18;;;;;;;15.80;2.85;;;16.00;72.00;;;;;;4863744;29;20141;-78
2022/11/03 07:34:46;;;;;;;16.05;2.42;;;16.10;72.10;;;;;;4863933;29;20403;-73
2022/11/03 07:37:19;;;;;;;11.15;2.30;;;16.00;72.10;;;;;;4864573;29;20070;-72
2022/11/03 07:39:46;;;;;;;13.60;2.47;;;16.10;71.90;;;;;;4864853;29;20064;-70
2022/11/03 07:42:18;;;;;;;9.00;1.80;;;16.10;71.70;;;;;;4864307;29;20106;-71
2022/11/03 07:44:45;;;;;;;14.80;2.95;;;16.10;71.60;;;;;;4864234;29;20061;-72
2022/11/03 07:47:13;;;;;;;10.15;2.38;;;16.20;71.30;;;;;;4864635;29;20351;-71
2022/11/03 07:49:39;;;;;;;9.60;2.08;;;16.10;70.80;;;;;;4863951;29;20133;-71
2022/11/03 07:52:09;;;;;;;12.32;2.78;;;16.10;70.30;;;;;;4863961;29;20102;-70
2022/11/03 07:54:35;;;;;;;12.13;2.67;;;16.10;70.00;;;;;;4863708;29;20041;-69
2022/11/03 07:57:18;;;;;;;11.27;2.58;;;16.10;70.40;;;;;;4863668;29;20386;-71
2022/11/03 07:59:47;;;;;;;11.63;2.78;;;16.10;70.70;;;;;;4863893;29;20049;-71
2022/11/03 08:02:19;;;;;;;12.57;2.97;;;16.20;70.90;;;;;;4863553;29;20140;-71
2022/11/03 08:04:45;;;;;;;8.43;2.63;;;16.10;71.10;;;;;;4863749;29;20045;-70
2022/11/03 08:07:10;;;;;;;16.77;2.67;;;16.10;71.30;;;;;;4863641;29;20054;-71
2022/11/03 08:09:36;;;;;;;8.75;2.53;;;16.10;71.60;;;;;;4863598;29;20125;-71
2022/11/03 08:12:02;;;;;;;7.90;2.28;;;16.10;71.60;;;;;;4864073;29;20045;-72
2022/11/03 08:14:27;;;;;;;7.50;2.33;;;16.10;72.30;;;;;;4863227;29;20095;-70
2022/11/03 08:16:53;;;;;;;7.13;2.15;;;16.10;71.80;;;;;;4863516;29;20063;-71
2022/11/03 08:19:19;;;;;;;13.93;2.33;;;16.10;71.60;;;;;;4863983;29;20328;-70
2022/11/03 08:21:44;;;;;;;11.38;2.85;;;16.10;71.10;;;;;;4863117;29;20077;-71
2022/11/03 08:24:10;;;;;;;9.02;1.70;;;16.10;70.80;;;;;;4863588;29;20092;-72
2022/11/03 08:26:36;;;;;;;10.27;2.78;;;16.10;70.70;;;;;;4863002;29;20041;-72
2022/11/03 08:29:02;;;;;;;12.98;2.00;;;16.10;70.70;;;;;;4863128;29;20092;-71
2022/11/03 08:31:28;;;;;;;11.35;2.53;;;16.10;70.90;;;;;;4862914;29;20527;-71
2022/11/03 08:33:53;;;;;;;10.48;2.08;;;16.10;71.00;;;;;;4863457;29;20045;-71
2022/11/03 08:36:19;;;;;;;16.20;2.75;;;16.10;71.10;;;;;;4863240;29;20441;-71
2022/11/03 08:38:45;;;;;;;13.35;2.97;;;16.10;71.10;;;;;;4863468;29;20045;-71
2022/11/03 08:41:11;;;;;;;12.50;2.25;;;16.10;71.00;;;;;;4863669;29;20109;-71
2022/11/03 08:43:36;;;;;;;13.70;2.45;;;16.10;70.80;;;;;;4862033;29;20631;-71
2022/11/03 08:46:02;;;;;;;10.85;2.90;;;16.10;70.70;;;;;;4862777;29;20049;-71
2022/11/03 08:48:28;;;;;;;10.50;2.47;;;16.10;70.90;;;;;;4863011;29;20352;-71
2022/11/03 08:50:54;;;;;;;14.18;2.30;;;16.10;70.90;;;;;;4863081;29;20467;-71
2022/11/03 08:53:24;;;;;;;12.68;2.63;;;16.10;70.90;;;;;;4863071;29;20057;-71
2022/11/03 08:55:51;;;;;;;9.10;2.10;;;16.10;71.00;;;;;;4862924;29;20053;-71
2022/11/03 08:58:16;;;;;;;12.40;2.42;;;16.10;71.00;;;;;;4862810;29;20053;-71
2022/11/03 09:00:42;;;;;;;10.75;2.40;;;16.10;71.00;;;;;;4863031;29;20370;-71
2022/11/03 09:03:08;;;;;;;8.02;1.65;;;16.10;70.70;;;;;;4847203;29;20053;-71
2022/11/03 09:05:34;;;;;;;7.78;2.22;;;16.20;70.30;;;;;;4862503;29;20056;-71
2022/11/03 09:08:00;;;;;;;8.48;1.60;;;16.10;70.20;;;;;;4862613;29;20045;-73
2022/11/03 09:10:26;;;;;;;11.48;2.53;;;16.10;70.10;;;;;;4845372;29;20378;-72
2022/11/03 09:12:52;;;;;;;10.57;2.47;;;16.10;70.60;;;;;;4862296;29;20054;-72
2022/11/03 09:15:18;;;;;;;11.82;2.25;;;16.10;70.70;;;;;;4862656;29;20085;-72
2022/11/03 09:17:43;;;;;;;7.47;1.83;;;16.10;71.00;;;;;;4862484;29;20088;-72
2022/11/03 09:20:10;;;;;;;11.23;2.00;;;16.10;71.30;;;;;;4862152;29;20056;-71
2022/11/03 09:22:35;;;;;;;7.35;1.55;;;16.10;71.10;;;;;;4863334;29;20105;-71
2022/11/03 09:25:01;;;;;;;8.45;1.80;;;16.10;70.80;;;;;;4862432;29;20359;-72
2022/11/03 09:27:27;;;;;;;6.30;2.05;;;16.10;70.70;;;;;;4862008;29;20462;-72
2022/11/03 09:29:53;;;;;;;7.35;2.00;;;16.10;70.60;;;;;;4862553;29;20060;-72
2022/11/03 09:32:19;;;;;;;6.53;1.60;;;16.10;70.60;;;;;;4862450;29;20101;-69
2022/11/03 09:34:44;;;;;;;12.77;2.53;;;16.10;70.70;;;;;;4862359;29;20137;-72
2022/11/03 09:37:10;;;;;;;6.68;1.77;;;16.10;70.90;;;;;;4846124;29;20049;-73
2022/11/03 09:39:36;;;;;;;13.90;1.83;;;16.10;70.90;;;;;;4862022;29;20049;-73
2022/11/03 09:42:03;;;;;;;6.80;1.75;;;16.10;71.00;;;;;;4862777;29;20363;-72
2022/11/03 09:44:32;;;;;;;9.35;2.08;;;16.10;71.00;;;;;;4862137;29;20058;-73
2022/11/03 09:46:59;;;;;;;13.40;2.40;;;16.10;71.00;;;;;;4862402;29;20376;-72
2022/11/03 09:49:26;;;;;;;6.22;1.88;;;16.20;71.10;;;;;;4862659;29;20114;-73
2022/11/03 09:51:52;;;;;;;10.43;1.90;;;16.10;71.10;;;;;;4862681;29;20075;-73
2022/11/03 09:54:19;;;;;;;9.48;2.30;;;16.20;71.10;;;;;;4848303;29;20060;-73
2022/11/03 09:56:46;;;;;;;8.98;1.80;;;16.20;71.10;;;;;;4866126;29;20060;-72
2022/11/03 09:59:20;;;;;;;6.90;1.60;;;16.10;71.10;;;;;;4850405;29;20073;-72
2022/11/03 10:01:48;;;;;;;4.80;1.75;;;16.10;71.10;;;;;;4865089;29;20056;-72
2022/11/03 10:04:21;;;;;;;6.72;1.77;;;16.10;71.10;;;;;;4865806;29;20054;-73
2022/11/03 10:06:47;;;;;;;13.68;1.98;;;16.20;71.10;;;;;;4865837;29;20049;-72
2022/11/03 10:09:19;;;;;;;7.10;1.40;;;16.20;71.30;;;;;;4865534;29;20420;-73
2022/11/03 10:11:46;;;;;;;9.27;1.88;;;16.20;71.30;;;;;;4865472;29;20462;-74
2022/11/03 10:14:14;;;;;;;6.05;1.70;;;16.20;71.30;;;;;;4866250;29;20359;-74
2022/11/03 10:16:42;;;;;;;5.40;1.80;;;16.20;71.30;;;;;;4865658;29;20463;-74
2022/11/03 10:19:13;;;;;;;6.97;1.48;;;16.20;71.30;;;;;;4865800;29;20113;-73
2022/11/03 10:21:40;;;;;;;6.60;1.98;;;16.20;71.30;;;;;;4865776;29;20050;-72
2022/11/03 10:24:10;;;;;;;10.13;2.13;;;16.20;71.20;;;;;;4864926;29;20045;-70
2022/11/03 10:27:02;;;;;;;5.65;1.60;;;16.20;71.20;;;;;;4849086;29;20467;-72
2022/11/03 10:29:28;;;;;;;7.57;1.50;;;16.20;71.20;;;;;;4862827;29;20095;-70
2022/11/03 10:31:57;;;;;;;6.43;1.67;;;16.20;71.10;;;;;;4865890;29;20081;-73
2022/11/03 10:34:36;;;;;;;6.70;2.03;;;16.20;71.00;;;;;;4865124;29;20089;-73
2022/11/03 10:37:23;;;;;;;8.50;2.40;;;16.10;71.00;;;;;;4865899;29;20050;-76
2022/11/03 10:39:57;;;;;;;10.27;2.60;;;16.10;71.20;;;;;;4833790;29;20046;-72
2022/11/03 10:42:29;;;;;;;9.50;2.55;;;16.10;71.50;;;;;;4865010;29;20057;-72
2022/11/03 10:45:15;;;;;;;9.40;2.17;;;16.10;71.50;;;;;;4865274;29;20061;-73
2022/11/03 10:47:41;;;;;;;7.25;2.33;;;16.10;71.40;;;;;;4864986;29;20057;-73
2022/11/03 10:50:24;;;;;;;5.38;1.23;;;16.10;71.50;;;;;;4848616;29;20046;-73
2022/11/03 10:52:50;;;;;;;6.30;1.75;;;16.10;71.50;;;;;;4864615;29;20462;-73
2022/11/03 10:55:21;;;;;;;7.00;1.80;;;16.10;71.50;;;;;;4864668;29;20045;-73
2022/11/03 10:57:48;;;;;;;9.75;2.15;;;16.20;71.60;;;;;;4864511;29;20064;-73
2022/11/03 11:00:18;;;;;;;11.07;2.47;;;16.10;71.60;;;;;;4865202;29;20045;-73
2022/11/03 11:02:45;;;;;;;10.40;2.72;;;16.10;71.70;;;;;;4864904;29;20049;-73
2022/11/03 11:05:20;;;;;;;8.35;1.60;;;16.20;71.80;;;;;;4863927;29;20057;-73
2022/11/03 11:07:49;;;;;;;12.43;2.10;;;16.20;71.70;;;;;;4864216;29;20105;-74
2022/11/03 11:10:19;;;;;;;11.68;2.30;;;16.20;71.60;;;;;;4864104;29;20045;-74
2022/11/03 11:13:18;;;;;;;7.55;1.73;;;16.20;71.40;;;;;;4865982;29;20204;-73
2022/11/03 11:15:48;;;;;;;6.20;2.25;;;16.20;71.40;;;;;;4844776;29;20118;-74
2022/11/03 11:18:29;;;;;;;7.10;1.98;;;16.20;71.40;;;;;;4846332;29;20046;-72
2022/11/03 11:21:14;;;;;;;7.60;1.80;;;16.20;71.40;;;;;;4864778;29;20045;-72
2022/11/03 11:23:40;;;;;;;7.32;1.98;;;16.20;71.40;;;;;;4863036;29;20363;-72
2022/11/03 11:26:09;;;;;;;8.82;1.75;;;16.20;71.50;;;;;;4864380;29;20053;-72
2022/11/03 11:28:37;;;;;;;11.38;1.50;;;16.20;71.50;;;;;;4864699;29;20049;-72
2022/11/03 11:31:29;;;;;;;11.57;2.38;;;16.20;71.50;;;;;;4864440;29;20064;-73
2022/11/03 11:34:17;;;;;;;6.55;1.50;;;16.20;71.50;;;;;;4863948;29;20144;-73
2022/11/03 11:36:52;;;;;;;8.68;2.17;;;16.20;71.40;;;;;;4863057;29;20439;-72
2022/11/03 11:39:27;;;;;;;9.63;2.15;;;16.20;71.50;;;;;;4863965;29;20050;-73
2022/11/03 11:42:16;;;;;;;5.80;1.67;;;16.20;71.40;;;;;;4864128;29;20106;-72
2022/11/03 11:44:41;;;;;;;7.22;1.60;;;16.20;71.30;;;;;;4863246;29;20061;-72
2022/11/03 11:47:44;;;;;;;7.25;1.85;;;16.20;70.80;;;;;;4864072;29;20482;-72
2022/11/03 11:50:13;;;;;;;4.53;2.20;;;16.20;70.50;;;;;;4863516;29;20061;-71
2022/11/03 11:52:50;;;;;;;5.97;2.05;;;16.20;70.60;;;;;;4863979;29;20049;-72
2022/11/03 11:55:31;;;;;;;8.02;2.53;;;16.10;70.40;;;;;;4864236;29;20431;-72
2022/11/03 11:57:59;;;;;;;10.20;2.58;;;16.10;70.40;;;;;;4863622;29;20049;-72
2022/11/03 12:00:30;;;;;;;6.75;2.40;;;16.00;70.10;;;;;;4863520;29;20120;-72
2022/11/03 12:02:57;;;;;;;8.80;2.08;;;16.00;70.20;;;;;;4863661;29;20344;-72
2022/11/03 12:05:27;;;;;;;7.32;2.10;;;16.00;70.10;;;;;;4864345;29;20041;-72
2022/11/03 12:07:54;;;;;;;6.43;2.58;;;16.00;70.20;;;;;;4863231;29;20045;-72
2022/11/03 12:10:27;;;;;;;5.40;2.03;;;16.00;70.10;;;;;;4863051;29;20080;-73
2022/11/03 12:12:53;;;;;;;;;;;15.90;70.10;;;;;;4864155;29;20476;-72
2022/11/03 12:15:51;;;;;;;5.55;1.98;;;15.90;70.30;;;;;;4863218;29;19924;-72
2022/11/03 12:18:37;;;;;;;9.73;2.65;;;15.90;70.50;;;;;;4863129;29;20057;-72
2022/11/03 12:21:08;;;;;;;11.23;2.00;;;15.90;70.70;;;;;;4863404;29;20041;-70
2022/11/03 12:23:45;;;;;;;8.05;2.78;;;15.90;70.70;;;;;;4863585;29;20439;-71
2022/11/03 12:26:37;;;;;;;11.15;2.80;;;15.90;70.70;;;;;;4862605;29;20091;-74
2022/11/03 12:29:04;;;;;;;10.65;2.75;;;16.00;70.90;;;;;;4860935;29;20057;-72
2022/11/03 12:31:30;;;;;;;5.95;2.20;;;16.00;70.90;;;;;;4863740;29;20050;-72
2022/11/03 12:33:55;;;;;;;8.88;2.10;;;16.00;71.00;;;;;;4863885;29;20056;-73
2022/11/03 12:36:21;;;;;;;7.78;2.13;;;16.00;71.10;;;;;;4863212;29;20053;-73
2022/11/03 12:38:47;;;;;;;11.55;2.25;;;16.00;71.10;;;;;;4863268;29;20486;-73
2022/11/03 12:41:23;;;;;;;10.13;2.08;;;16.00;71.20;;;;;;4863221;29;20042;-71
2022/11/03 12:43:50;;;;;;;6.57;2.20;;;16.10;71.40;;;;;;4862305;29;20379;-71
2022/11/03 12:46:17;;;;;;;12.23;2.42;;;16.10;71.20;;;;;;4845740;29;20498;-72
2022/11/03 12:48:43;;;;;;;6.78;2.00;;;16.10;71.10;;;;;;4846127;29;20053;-70
2022/11/03 12:51:21;;;;;;;5.57;1.52;;;16.10;71.00;;;;;;4862907;29;20116;-71
2022/11/03 12:53:47;;;;;;;9.38;2.15;;;16.10;70.90;;;;;;4861007;29;20057;-70
2022/11/03 12:56:14;;;;;;;6.82;2.30;;;16.10;70.70;;;;;;4861711;29;20136;-70
2022/11/03 12:58:40;;;;;;;8.85;2.05;;;16.10;70.50;;;;;;4862745;29;20140;-71
2022/11/03 13:01:07;;;;;;;9.52;2.17;;;16.10;70.40;;;;;;4862487;29;20053;-72
2022/11/03 13:03:33;;;;;;;8.25;2.10;;;16.10;70.20;;;;;;4862405;29;20432;-73
2022/11/03 13:06:01;;;;;;;6.22;1.60;;;16.10;70.30;;;;;;4862157;29;20148;-73
2022/11/03 13:08:27;;;;;;;8.85;1.60;;;16.10;70.30;;;;;;4846631;29;20071;-72
2022/11/03 13:10:52;;;;;;;5.63;1.30;;;16.10;70.50;;;;;;4847124;29;20200;-73
2022/11/03 13:13:19;;;;;;;6.97;1.88;;;16.10;70.60;;;;;;4862498;29;20053;-73
2022/11/03 13:15:45;;;;;;;5.18;1.98;;;16.10;70.70;;;;;;4862500;29;20045;-73
2022/11/03 13:18:10;;;;;;;6.68;1.75;;;16.10;70.80;;;;;;4862469;29;20052;-72
2022/11/03 13:20:36;;;;;;;7.63;1.92;;;16.10;70.80;;;;;;4862428;29;20090;-72
2022/11/03 13:23:03;;;;;;;5.47;1.65;;;16.10;70.80;;;;;;4862464;29;20054;-73
2022/11/03 13:25:29;;;;;;;7.45;1.88;;;16.20;70.90;;;;;;4846377;29;20050;-73
2022/11/03 13:27:55;;;;;;;6.95;1.30;;;16.20;71.00;;;;;;4862558;29;20046;-73
2022/11/03 13:30:23;;;;;;;6.78;2.33;;;16.20;71.00;;;;;;4866221;29;20132;-71
2022/11/03 13:32:49;;;;;;;9.43;1.77;;;16.20;71.10;;;;;;4848749;29;20407;-69
2022/11/03 13:35:15;;;;;;;5.80;1.92;;;16.20;71.10;;;;;;4868715;29;20044;-73
2022/11/03 13:37:41;;;;;;;8.65;1.77;;;16.20;71.10;;;;;;4865956;29;20390;-71
2022/11/03 13:40:08;;;;;;;9.77;2.40;;;16.20;71.00;;;;;;4866247;29;20049;-71
2022/11/03 13:42:34;;;;;;;6.97;2.28;;;16.20;71.10;;;;;;4866247;29;20049;-72
2022/11/03 13:44:59;;;;;;;8.43;2.30;;;16.20;71.10;;;;;;4865062;29;20058;-72
2022/11/03 13:47:25;;;;;;;12.98;1.92;;;16.20;71.10;;;;;;4864727;29;20057;-70
2022/11/03 13:49:51;;;;;;;17.00;2.47;;;16.20;71.10;;;;;;4865042;29;20057;-73
2022/11/03 13:52:18;;;;;;;11.68;2.45;;;16.20;71.20;;;;;;4864660;29;20359;-73
2022/11/03 13:54:44;;;;;;;6.65;2.08;;;16.20;71.50;;;;;;4866354;29;20177;-70
2022/11/03 13:57:10;;;;;;;14.85;3.25;;;16.20;71.70;;;;;;4866046;29;20408;-73
2022/11/03 13:59:35;;;;;;;10.60;2.13;;;16.20;72.10;;;;;;4880346;29;20054;-77
2022/11/03 14:02:02;;;;;;;11.63;2.63;;;16.20;72.50;;;;;;4865739;29;20190;-76
2022/11/03 14:04:29;;;;;;;11.52;2.50;;;16.20;72.70;;;;;;4865727;29;20081;-77
2022/11/03 14:06:55;;;;;;;19.45;2.95;;;16.20;73.10;;;;;;4865616;29;20045;-76
2022/11/03 14:09:20;;;;;;;19.67;3.10;;;16.20;73.30;;;;;;4865775;29;20053;-75
2022/11/03 14:14:31;;;;;;;13.98;3.28;;;16.20;73.20;;;;;;4865885;29;20061;-70
2022/11/03 14:16:56;;;;;;;15.75;2.63;;;16.30;73.00;;;;;;4849239;29;20348;-73
2022/11/03 14:19:22;;;;;;;17.45;3.38;;;16.30;72.30;;;;;;4849500;29;20057;-74
2022/11/03 14:21:49;;;;;;;22.67;4.10;;;16.30;72.30;;;;;;4865895;29;20050;-75
2022/11/03 14:24:15;;;;;;;14.60;3.20;;;16.30;72.80;;;;;;4865409;29;20050;-71
2022/11/03 14:26:40;;;;;;;12.52;2.78;;;16.30;72.20;;;;;;4865515;29;20126;-73
2022/11/03 14:29:07;;;;;;;10.20;2.33;;;16.30;70.90;;;;;;4849225;29;20053;-74
2022/11/03 14:31:33;;;;;;;10.35;2.65;;;16.30;70.40;;;;;;4879552;29;20132;-70
2022/11/03 14:33:58;;;;;;;10.80;2.22;;;16.30;70.40;;;;;;4864967;29;20069;-73
2022/11/03 14:36:24;;;;;;;10.73;2.40;;;16.30;70.20;;;;;;4848970;29;20433;-75
2022/11/03 14:38:50;;;;;;;16.85;3.40;;;16.30;70.50;;;;;;4865030;29;20053;-75
2022/11/03 14:44:02;;;;;;;12.02;2.42;;;16.20;71.30;;;;;;4862799;29;20061;-78
2022/11/03 14:46:28;;;;;;;13.93;3.08;;;16.20;71.60;;;;;;4864893;29;20419;-75
2022/11/03 14:48:54;;;;;;;14.13;2.95;;;16.20;72.00;;;;;;4865179;29;20092;-75
2022/11/03 14:51:20;;;;;;;9.65;2.22;;;16.20;72.20;;;;;;4864718;29;20505;-73
2022/11/03 14:53:45;;;;;;;14.60;3.03;;;16.30;72.70;;;;;;4864839;29;20049;-74
2022/11/03 14:56:11;;;;;;;17.67;2.30;;;16.30;73.00;;;;;;4864813;29;20041;-76
2022/11/03 14:58:37;;;;;;;14.80;3.53;;;16.30;73.20;;;;;;4864831;29;20447;-74
2022/11/03 15:01:03;;;;;;;14.95;2.80;;;16.30;73.40;;;;;;4864735;29;20060;-72
2022/11/03 15:03:29;;;;;;;13.48;2.88;;;16.40;73.60;;;;;;4864585;29;20072;-72
2022/11/03 15:05:55;;;;;;;17.75;3.45;;;16.40;73.50;;;;;;4848850;29;20053;-74
2022/11/03 15:08:22;;;;;;;14.52;3.38;;;16.40;73.50;;;;;;4864675;29;20052;-71
2022/11/03 15:10:48;;;;;;;17.67;3.10;;;16.40;73.60;;;;;;4864901;29;20061;-74
2022/11/03 15:13:14;;;;;;;19.98;4.00;;;16.40;73.50;;;;;;4864731;29;20041;-73
2022/11/03 15:15:41;;;;;;;18.17;3.25;;;16.40;73.40;;;;;;4864625;29;20344;-72
2022/11/03 15:18:08;;;;;;;13.35;3.13;;;16.40;73.40;;;;;;4865067;29;20049;-72
2022/11/03 15:20:35;;;;;;;10.70;3.03;;;16.40;73.50;;;;;;4864465;29;20093;-72
2022/11/03 15:23:05;;;;;;;12.13;2.83;;;16.40;73.40;;;;;;4864896;29;20095;-72
2022/11/03 15:25:31;;;;;;;12.80;2.83;;;16.40;73.50;;;;;;4864183;29;20562;-72
2022/11/03 15:27:57;;;;;;;11.82;2.97;;;16.40;73.40;;;;;;4864079;29;20122;-72
2022/11/03 15:30:23;;;;;;;10.60;2.55;;;16.40;73.40;;;;;;4864151;29;20050;-72
2022/11/03 15:32:49;;;;;;;8.80;2.20;;;16.40;73.40;;;;;;4864127;29;20053;-72
2022/11/03 15:35:15;;;;;;;10.82;2.40;;;16.40;74.00;;;;;;4864063;29;20110;-71
2022/11/03 15:37:43;;;;;;;6.63;2.17;;;16.40;72.90;;;;;;4864517;29;20436;-71
2022/11/03 15:40:12;;;;;;;7.47;2.40;;;16.30;71.00;;;;;;4863987;29;20427;-71
2022/11/03 15:42:38;;;;;;;4.07;1.65;;;16.30;70.00;;;;;;4863913;29;20057;-71
2022/11/03 15:45:04;;;;;;;6.75;2.15;;;16.20;69.50;;;;;;4864106;29;20133;-72
2022/11/03 15:47:31;;;;;;;4.28;1.85;;;16.20;69.10;;;;;;4863204;29;20041;-76
2022/11/03 15:49:57;;;;;;;6.57;2.17;;;16.10;69.10;;;;;;4863826;29;20057;-75
2022/11/03 15:52:22;;;;;;;5.20;2.20;;;16.10;69.90;;;;;;4863722;29;20056;-76
2022/11/03 15:54:48;;;;;;;6.80;2.20;;;16.10;69.60;;;;;;4864033;29;20049;-76
2022/11/03 15:57:14;;;;;;;4.45;2.33;;;16.10;69.90;;;;;;4863732;29;20053;-76
2022/11/03 15:59:40;;;;;;;3.38;1.65;;;16.10;70.10;;;;;;4863707;29;20113;-77
2022/11/03 16:02:06;;;;;;;4.45;1.67;;;16.10;70.20;;;;;;4863793;29;20379;-76
2022/11/03 16:04:32;;;;;;;6.00;2.10;;;16.20;70.40;;;;;;4863958;29;20363;-75
2022/11/03 16:06:58;;;;;;;4.43;1.70;;;16.20;70.50;;;;;;4863901;29;20050;-76
2022/11/03 16:09:23;;;;;;;4.60;1.70;;;16.20;70.60;;;;;;4863491;29;20045;-76
2022/11/03 16:11:49;;;;;;;5.40;1.90;;;16.20;70.60;;;;;;4863404;29;20044;-77
2022/11/03 16:14:15;;;;;;;5.47;1.83;;;16.20;70.60;;;;;;4862726;29;20060;-76
2022/11/03 16:16:41;;;;;;;5.55;1.73;;;16.20;70.70;;;;;;4862575;29;20383;-77
2022/11/03 16:19:06;;;;;;;5.32;1.65;;;16.20;70.80;;;;;;4863004;29;20113;-77
2022/11/03 16:21:35;;;;;;;5.68;1.70;;;16.20;70.80;;;;;;4862585;29;20096;-76
2022/11/03 16:24:03;;;;;;;4.38;1.73;;;16.30;70.90;;;;;;4862631;29;20057;-78
2022/11/03 16:26:30;;;;;;;5.13;2.22;;;16.20;70.90;;;;;;4862070;29;20081;-76
2022/11/03 16:28:56;;;;;;;6.18;1.80;;;16.20;70.90;;;;;;4862065;29;20085;-76
2022/11/03 16:31:22;;;;;;;4.20;1.55;;;16.20;70.90;;;;;;4861078;29;20057;-77
2022/11/03 16:33:48;;;;;;;5.13;1.65;;;16.30;71.10;;;;;;4862820;29;20049;-76
2022/11/03 16:36:14;;;;;;;3.83;1.33;;;16.30;71.10;;;;;;4862616;29;20435;-76
2022/11/03 16:38:40;;;;;;;5.05;1.88;;;16.30;71.10;;;;;;4862657;29;20097;-77
2022/11/03 16:41:05;;;;;;;3.90;1.70;;;16.30;71.20;;;;;;4862763;29;20136;-76
2022/11/03 16:43:31;;;;;;;3.78;1.50;;;16.30;71.20;;;;;;4862825;29;20132;-77
2022/11/03 16:45:57;;;;;;;3.67;1.77;;;16.30;71.20;;;;;;4863332;29;20080;-77
2022/11/03 16:48:22;;;;;;;5.85;2.20;;;16.30;71.30;;;;;;4863063;29;20477;-76
2022/11/03 16:50:48;;;;;;;5.45;1.88;;;16.30;71.30;;;;;;4861562;29;20121;-78
2022/11/03 16:53:14;;;;;;;3.50;1.40;;;16.30;71.40;;;;;;4862719;29;20046;-77
2022/11/03 16:55:39;;;;;;;5.38;2.10;;;16.30;71.40;;;;;;4863231;29;20451;-77
2022/11/03 16:58:05;;;;;;;4.70;1.20;;;16.30;71.30;;;;;;4863062;29;20056;-77
2022/11/03 17:00:31;;;;;;;6.05;1.65;;;16.30;71.30;;;;;;4862619;29;20060;-76
2022/11/03 17:02:58;;;;;;;4.00;1.33;;;16.30;71.30;;;;;;4862169;29;20124;-77
2022/11/03 17:05:24;;;;;;;4.25;1.35;;;16.30;71.30;;;;;;4862723;29;20077;-77
2022/11/03 17:07:50;;;;;;;3.88;1.48;;;16.30;71.30;;;;;;4862634;29;20160;-77
2022/11/03 17:10:16;;;;;;;5.00;1.77;;;16.30;71.30;;;;;;4862330;29;20046;-76
2022/11/03 17:12:41;;;;;;;2.72;1.38;;;16.30;71.30;;;;;;4862346;29;20077;-77
2022/11/03 17:15:07;;;;;;;4.38;1.40;;;16.30;71.30;;;;;;4862449;29;20049;-76
2022/11/03 17:17:33;;;;;;;4.45;1.50;;;16.30;71.40;;;;;;4862533;29;20056;-77
2022/11/03 17:19:59;;;;;;;7.25;2.08;;;16.30;71.40;;;;;;4846595;29;20129;-78
2022/11/03 17:22:24;;;;;;;3.22;1.20;;;16.30;71.40;;;;;;4861622;29;20056;-77
2022/11/03 17:24:50;;;;;;;4.25;1.40;;;16.30;71.40;;;;;;4862559;29;20057;-77
2022/11/03 17:27:16;;;;;;;5.57;1.52;;;16.30;71.50;;;;;;4863080;29;20060;-78
2022/11/03 17:29:52;;;;;;;3.90;1.15;;;16.30;71.50;;;;;;4862567;29;20085;-78
2022/11/03 17:32:30;;;;;;;2.05;1.08;;;16.30;71.60;;;;;;4863143;29;20060;-78
2022/11/03 17:34:57;;;;;;;5.22;1.48;;;16.30;71.60;;;;;;4862830;29;20121;-77
2022/11/03 17:37:26;;;;;;;4.70;1.20;;;16.30;71.60;;;;;;4862694;29;20080;-79
2022/11/03 17:39:52;;;;;;;4.57;1.67;;;16.30;71.60;;;;;;4862471;29;20117;-76
2022/11/03 17:42:26;;;;;;;4.32;1.13;;;16.30;71.60;;;;;;4862202;29;20464;-77
2022/11/03 17:44:54;;;;;;;4.15;1.90;;;16.30;71.70;;;;;;4862410;29;20123;-77
2022/11/03 17:47:22;;;;;;;2.85;1.23;;;16.30;71.70;;;;;;4862716;29;20050;-77
2022/11/03 17:49:48;;;;;;;5.47;1.45;;;16.30;71.70;;;;;;4863285;29;20089;-78
2022/11/03 17:52:21;;;;;;;3.00;1.48;;;16.30;71.70;;;;;;4864853;29;20045;-79
2022/11/03 17:54:48;;;;;;;1.95;0.93;;;16.30;71.60;;;;;;4862184;29;20042;-78
2022/11/03 17:57:21;;;;;;;2.88;1.48;;;16.30;71.60;;;;;;4861756;29;20391;-76
2022/11/03 17:59:49;;;;;;;2.38;1.27;;;16.30;71.70;;;;;;4861244;29;20065;-78
2022/11/03 18:02:21;;;;;;;3.03;1.20;;;16.20;71.60;;;;;;4861572;29;20408;-77
2022/11/03 18:04:46;;;;;;;3.53;1.10;;;16.30;71.80;;;;;;4845807;29;20129;-77
2022/11/03 18:07:32;;;;;;;3.25;1.30;;;16.30;71.80;;;;;;4861979;29;20128;-78
2022/11/03 18:09:58;;;;;;;4.38;1.50;;;16.20;71.70;;;;;;4862008;29;20094;-77
2022/11/03 18:15:19;;;;;;;;;;;16.30;71.80;;;;;;4865069;29;20053;-78
2022/11/03 18:17:45;;;;;;;2.50;1.20;;;16.20;71.70;;;;;;4865699;29;19924;-78
2022/11/03 18:20:15;;;;;;;4.15;1.15;;;16.20;71.80;;;;;;4879828;29;20141;-77
2022/11/03 18:22:41;;;;;;;4.93;1.40;;;16.30;71.80;;;;;;4864727;29;20076;-78
2022/11/03 18:25:14;;;;;;;2.45;1.33;;;16.20;71.80;;;;;;4865697;29;20057;-77
2022/11/03 18:27:40;;;;;;;5.22;1.52;;;16.20;71.80;;;;;;4865130;29;20072;-74
2022/11/03 18:30:08;;;;;;;2.45;1.30;;;16.30;72.00;;;;;;4864767;29;20121;-76
2022/11/03 18:32:34;;;;;;;6.25;1.30;;;16.20;72.00;;;;;;4865261;29;20081;-75